Time;durP1;ratioP1;P1;durP2;ratioP2;P2;SDS_P1;SDS_P2;PMS_P1;PMS_P2;Temp;Humidity;BMP_temperature;BMP_pressure;BME280_temperature;BME280_humidity;BME280_pressure;Samples;Min_cycle;Max_cycle;Signal;HPM_P1;HPM_P2
2021/10/04 00:01:07;;;;;;;0.90;0.73;;;;;;;11.74;99.57;95772.44;6207343;23;20475;-64
2021/10/04 00:03:33;;;;;;;1.05;0.65;;;;;;;11.86;96.89;95780.97;6205585;23;20001;-64
2021/10/04 00:05:59;;;;;;;0.60;0.60;;;;;;;11.72;97.72;95787.59;6206506;23;20004;-64
2021/10/04 00:08:24;;;;;;;2.50;0.90;;;;;;;11.72;97.40;95792.84;6206620;23;20012;-64
2021/10/04 00:10:50;;;;;;;2.17;0.52;;;;;;;11.66;97.22;95785.53;6206168;23;20393;-64
2021/10/04 00:13:16;;;;;;;0.50;0.50;;;;;;;11.64;97.66;95784.00;6206898;23;20079;-64
2021/10/04 00:15:41;;;;;;;1.00;0.82;;;;;;;11.57;99.14;95791.66;6206966;23;20313;-64
2021/10/04 00:18:07;;;;;;;0.60;0.60;;;;;;;11.49;99.48;95799.50;6206331;23;20012;-64
2021/10/04 00:20:32;;;;;;;0.68;0.60;;;;;;;11.54;98.98;95794.59;6206759;23;20019;-64
2021/10/04 00:22:59;;;;;;;1.13;0.73;;;;;;;11.54;98.56;95800.72;6206732;23;20000;-64
2021/10/04 00:25:25;;;;;;;0.88;0.68;;;;;;;11.59;98.14;95802.91;6205762;23;20440;-64
2021/10/04 00:27:51;;;;;;;0.77;0.57;;;;;;;11.52;98.61;95800.03;6205553;22;20016;-64
2021/10/04 00:30:16;;;;;;;2.60;0.60;;;;;;;11.51;98.34;95803.66;6179793;23;20011;-63
2021/10/04 00:32:44;;;;;;;0.40;0.40;;;;;;;11.39;97.72;95810.91;6206763;23;20070;-64
2021/10/04 00:35:13;;;;;;;0.70;0.70;;;;;;;11.28;98.04;95819.81;6206384;23;20001;-64
2021/10/04 00:37:39;;;;;;;0.60;0.60;;;;;;;11.20;97.61;95814.41;6206714;23;20049;-64
2021/10/04 00:40:07;;;;;;;0.50;0.50;;;;;;;11.17;98.85;95812.91;6205974;23;20008;-64
2021/10/04 00:42:32;;;;;;;0.60;0.60;;;;;;;11.18;98.44;95805.81;6206020;23;20092;-64
2021/10/04 00:44:58;;;;;;;0.50;0.50;;;;;;;11.15;98.64;95804.28;6205865;23;20068;-64
2021/10/04 00:47:23;;;;;;;0.50;0.50;;;;;;;11.12;98.85;95812.50;6205187;23;20087;-63
2021/10/04 00:49:49;;;;;;;3.50;0.70;;;;;;;11.08;98.46;95811.13;6206091;23;20344;-64
2021/10/04 00:52:14;;;;;;;1.50;1.50;;;;;;;11.07;98.54;95800.75;6206675;23;20001;-63
2021/10/04 00:54:40;;;;;;;1.65;1.02;;;;;;;11.12;99.19;95794.03;6206673;23;20445;-63
2021/10/04 00:57:05;;;;;;;0.77;0.77;;;;;;;11.06;99.81;95791.19;6206264;23;20079;-64
2021/10/04 00:59:32;;;;;;;1.45;0.73;;;;;;;11.04;100.00;95796.56;6206685;23;20075;-63
2021/10/04 01:01:58;;;;;;;1.20;0.60;;;;;;;11.04;99.40;95802.66;6205668;23;20009;-64
2021/10/04 01:04:26;;;;;;;0.80;0.80;;;;;;;11.02;98.69;95803.78;6206640;23;20033;-63
2021/10/04 01:06:53;;;;;;;0.50;0.50;;;;;;;10.98;98.39;95819.03;6206440;23;20088;-63
2021/10/04 01:09:19;;;;;;;2.28;0.60;;;;;;;11.06;97.28;95814.88;6207128;23;20504;-64
2021/10/04 01:11:45;;;;;;;0.60;0.60;;;;;;;11.01;96.50;95810.03;6207613;23;20001;-63
2021/10/04 01:14:10;;;;;;;0.60;0.60;;;;;;;10.97;96.87;95811.28;6207053;23;20084;-63
2021/10/04 01:16:36;;;;;;;0.50;0.50;;;;;;;10.93;97.55;95817.78;6207337;23;20076;-63
2021/10/04 01:19:02;;;;;;;0.50;0.50;;;;;;;10.94;96.55;95822.09;6207754;23;20038;-63
2021/10/04 01:21:27;;;;;;;0.70;0.70;;;;;;;10.81;97.34;95828.50;6207057;23;20000;-63
2021/10/04 01:23:53;;;;;;;0.70;0.70;;;;;;;10.84;97.15;95824.75;6207543;23;20008;-64
2021/10/04 01:26:20;;;;;;;1.27;0.60;;;;;;;10.81;97.36;95836.41;6207318;23;20009;-63
2021/10/04 01:28:46;;;;;;;0.55;0.55;;;;;;;10.75;98.35;95827.25;6207443;23;20068;-64
2021/10/04 01:31:12;;;;;;;0.63;0.63;;;;;;;10.78;98.56;95838.47;6207091;23;20050;-63
2021/10/04 01:33:38;;;;;;;0.70;0.70;;;;;;;10.88;98.01;95845.38;6207572;23;20008;-63
2021/10/04 01:36:03;;;;;;;0.45;0.45;;;;;;;10.81;97.25;95841.66;6207543;23;20008;-63
2021/10/04 01:38:29;;;;;;;0.98;0.70;;;;;;;10.69;98.47;95845.41;6207240;23;20050;-63
2021/10/04 01:40:54;;;;;;;2.70;0.90;;;;;;;10.67;98.70;95855.25;6207603;23;20012;-63
2021/10/04 01:43:19;;;;;;;1.02;0.70;;;;;;;10.68;99.57;95849.00;6206627;23;20004;-63
2021/10/04 01:45:45;;;;;;;0.90;0.90;;;;;;;10.68;98.58;95852.47;6180350;23;20440;-63
2021/10/04 01:48:10;;;;;;;0.85;0.80;;;;;;;10.70;99.56;95852.31;6207365;23;20009;-64
2021/10/04 01:50:37;;;;;;;0.98;0.80;;;;;;;10.70;98.73;95853.16;6206908;23;20018;-63
2021/10/04 01:53:04;;;;;;;0.70;0.70;;;;;;;10.64;98.92;95852.88;6206977;23;20005;-63
2021/10/04 01:55:30;;;;;;;0.70;0.70;;;;;;;10.66;98.60;95856.22;6206772;23;20000;-64
2021/10/04 01:57:55;;;;;;;0.77;0.77;;;;;;;10.58;98.40;95859.53;6207523;23;20087;-63
2021/10/04 02:00:22;;;;;;;1.17;0.90;;;;;;;10.61;98.27;95856.66;6207036;23;20287;-63
2021/10/04 02:02:51;;;;;;;0.73;0.73;;;;;;;10.51;98.83;95854.00;6207552;23;20043;-63
2021/10/04 02:05:20;;;;;;;0.60;0.60;;;;;;;10.53;99.28;95856.50;6206636;23;20008;-63
2021/10/04 02:07:46;;;;;;;0.75;0.75;;;;;;;10.51;99.46;95842.63;6207522;23;20008;-63
2021/10/04 02:10:14;;;;;;;0.70;0.70;;;;;;;10.46;100.00;95848.31;6207487;23;20005;-63
2021/10/04 02:12:41;;;;;;;0.68;0.68;;;;;;;10.49;100.00;95858.56;6206524;23;20015;-63
2021/10/04 02:15:07;;;;;;;0.80;0.80;;;;;;;10.50;99.39;95847.09;6180934;23;20058;-63
2021/10/04 02:17:34;;;;;;;1.20;0.90;;;;;;;10.53;99.37;95836.28;6206855;23;20000;-63
2021/10/04 02:20:00;;;;;;;0.80;0.80;;;;;;;10.50;99.93;95839.19;6206779;23;20031;-63
2021/10/04 02:22:25;;;;;;;0.70;0.70;;;;;;;10.51;99.56;95832.94;6206844;23;20353;-63
2021/10/04 02:24:51;;;;;;;0.75;0.70;;;;;;;10.52;99.07;95839.88;6207598;23;20005;-63
2021/10/04 02:27:17;;;;;;;1.13;0.80;;;;;;;10.52;98.66;95850.41;6205856;23;20047;-63
2021/10/04 02:29:42;;;;;;;0.70;0.70;;;;;;;10.44;98.64;95848.47;6207303;23;20432;-63
2021/10/04 02:32:08;;;;;;;1.33;0.90;;;;;;;10.35;98.44;95849.22;6206624;23;20385;-63
2021/10/04 02:34:34;;;;;;;0.80;0.80;;;;;;;10.29;97.97;95858.53;6207212;23;20001;-63
2021/10/04 02:36:59;;;;;;;0.70;0.70;;;;;;;10.34;98.12;95876.50;6207402;23;20004;-63
2021/10/04 02:39:25;;;;;;;0.80;0.80;;;;;;;10.37;98.97;95880.69;6207128;23;20009;-63
2021/10/04 02:41:50;;;;;;;0.80;0.80;;;;;;;10.36;98.66;95871.94;6207501;23;20081;-63
2021/10/04 02:44:16;;;;;;;0.70;0.70;;;;;;;10.36;98.36;95868.50;6205789;23;20004;-62
2021/10/04 02:46:42;;;;;;;0.90;0.85;;;;;;;10.34;98.42;95850.19;6207011;23;20013;-63
2021/10/04 02:49:07;;;;;;;0.90;0.80;;;;;;;10.27;98.22;95855.16;6207140;23;20069;-63
2021/10/04 02:51:33;;;;;;;1.90;1.80;;;;;;;10.24;98.22;95862.53;6206968;23;20001;-63
2021/10/04 02:53:58;;;;;;;0.70;0.70;;;;;;;10.20;97.92;95855.88;6207146;23;20005;-63
2021/10/04 02:56:24;;;;;;;0.80;0.80;;;;;;;10.17;98.64;95854.34;6207390;23;20009;-63
2021/10/04 02:58:49;;;;;;;0.77;0.77;;;;;;;10.15;98.67;95866.78;6207098;23;20000;-63
2021/10/04 03:01:15;;;;;;;0.85;0.85;;;;;;;10.11;99.35;95879.38;6206508;23;20005;-63
2021/10/04 03:03:40;;;;;;;1.85;0.80;;;;;;;10.09;99.17;95875.22;6207025;23;20011;-63
2021/10/04 03:06:05;;;;;;;0.80;0.80;;;;;;;10.13;98.81;95881.88;6206857;23;20013;-63
2021/10/04 03:08:31;;;;;;;0.80;0.80;;;;;;;10.17;98.33;95884.13;6206713;23;20005;-63
2021/10/04 03:10:56;;;;;;;0.75;0.75;;;;;;;10.12;99.12;95880.22;6207211;23;20154;-63
2021/10/04 03:13:22;;;;;;;0.82;0.82;;;;;;;10.12;98.68;95888.94;6207285;23;20444;-63
2021/10/04 03:15:47;;;;;;;0.68;0.68;;;;;;;10.17;99.14;95885.91;6206838;23;20005;-63
2021/10/04 03:18:12;;;;;;;1.95;0.80;;;;;;;10.13;98.96;95881.88;6206850;23;20015;-63
2021/10/04 03:20:39;;;;;;;0.80;0.80;;;;;;;10.07;100.00;95892.94;6207484;23;20011;-63
2021/10/04 03:23:05;;;;;;;1.13;0.80;;;;;;;10.06;100.00;95886.00;6207370;23;20062;-63
2021/10/04 03:25:31;;;;;;;1.15;1.00;;;;;;;10.07;100.00;95898.22;6207361;23;20012;-63
2021/10/04 03:27:56;;;;;;;0.80;0.80;;;;;;;10.16;99.93;95905.28;6206984;23;20048;-63
2021/10/04 03:30:22;;;;;;;0.90;0.90;;;;;;;10.16;100.00;95887.69;6207241;23;20424;-63
2021/10/04 03:32:48;;;;;;;0.80;0.80;;;;;;;10.23;99.36;95881.91;6206828;23;20000;-63
2021/10/04 03:35:14;;;;;;;0.80;0.80;;;;;;;10.20;98.65;95877.75;6206783;23;20336;-63
2021/10/04 03:37:40;;;;;;;0.68;0.68;;;;;;;10.14;100.00;95859.88;6207202;23;20008;-63
2021/10/04 03:40:06;;;;;;;1.75;0.70;;;;;;;10.07;100.00;95850.88;6206768;23;20005;-62
2021/10/04 03:42:31;;;;;;;0.70;0.70;;;;;;;10.03;100.00;95852.91;6207001;23;20318;-63
2021/10/04 03:44:57;;;;;;;0.65;0.65;;;;;;;10.03;100.00;95860.81;6207580;23;20085;-63
2021/10/04 03:47:22;;;;;;;2.72;0.82;;;;;;;10.04;100.00;95851.94;6206540;23;20011;-62
2021/10/04 03:49:48;;;;;;;0.98;0.98;;;;;;;10.08;100.00;95849.91;6207650;23;20004;-62
2021/10/04 03:52:13;;;;;;;1.20;1.20;;;;;;;10.04;100.00;95850.13;6205894;23;20428;-62
2021/10/04 03:54:38;;;;;;;1.10;1.10;;;;;;;10.09;100.00;95852.38;6206607;23;20433;-62
2021/10/04 03:57:04;;;;;;;1.25;0.90;;;;;;;10.11;100.00;95862.78;6206651;23;19997;-62
2021/10/04 03:59:30;;;;;;;0.80;0.80;;;;;;;10.15;100.00;95857.09;6206945;23;20388;-62
2021/10/04 04:01:55;;;;;;;0.77;0.70;;;;;;;10.14;100.00;95851.97;6206816;23;20079;-62
2021/10/04 04:04:21;;;;;;;0.90;0.90;;;;;;;10.10;100.00;95856.66;6206968;23;19997;-62
2021/10/04 04:06:46;;;;;;;0.80;0.80;;;;;;;10.09;100.00;95868.16;6206033;23;20040;-62
2021/10/04 04:09:11;;;;;;;2.70;0.95;;;;;;;10.07;100.00;95858.75;6206808;23;20001;-62
2021/10/04 04:11:37;;;;;;;3.70;0.70;;;;;;;10.08;100.00;95842.81;6206659;23;20032;-63
2021/10/04 04:14:03;;;;;;;0.80;0.80;;;;;;;10.13;100.00;95847.69;6207363;23;20008;-62
2021/10/04 04:16:29;;;;;;;2.40;0.80;;;;;;;10.17;100.00;95846.44;6206989;23;20008;-62
2021/10/04 04:18:54;;;;;;;0.80;0.80;;;;;;;10.13;100.00;95839.78;6206764;23;20008;-62
2021/10/04 04:21:20;;;;;;;1.15;0.90;;;;;;;10.12;100.00;95841.56;6206920;23;20004;-63
2021/10/04 04:23:45;;;;;;;1.90;0.82;;;;;;;10.09;100.00;95838.41;6206238;23;20506;-62
2021/10/04 04:26:11;;;;;;;0.60;0.60;;;;;;;9.99;100.00;95839.19;6205801;23;20080;-62
2021/10/04 04:28:36;;;;;;;0.80;0.80;;;;;;;10.00;100.00;95861.91;6206351;23;20054;-62
2021/10/04 04:31:02;;;;;;;4.47;0.90;;;;;;;10.01;100.00;95853.03;6179691;22;20088;-62
2021/10/04 04:33:27;;;;;;;0.73;0.73;;;;;;;9.95;100.00;95861.47;6206955;23;20054;-62
2021/10/04 04:35:53;;;;;;;0.70;0.70;;;;;;;9.91;100.00;95864.50;6206349;23;20000;-62
2021/10/04 04:38:18;;;;;;;0.90;0.90;;;;;;;9.95;100.00;95858.84;6179471;23;20009;-63
2021/10/04 04:40:44;;;;;;;0.70;0.70;;;;;;;9.98;100.00;95869.09;6206285;23;20012;-62
2021/10/04 04:43:10;;;;;;;0.90;0.90;;;;;;;9.99;100.00;95864.69;6207250;23;20024;-62
2021/10/04 04:45:35;;;;;;;1.00;1.00;;;;;;;9.96;100.00;95863.13;6208003;23;20005;-62
2021/10/04 04:48:00;;;;;;;0.80;0.80;;;;;;;9.93;100.00;95876.56;6207564;23;20005;-62
2021/10/04 04:50:26;;;;;;;0.80;0.80;;;;;;;9.97;100.00;95891.09;6207167;23;20005;-62
2021/10/04 04:52:52;;;;;;;1.42;1.33;;;;;;;9.99;100.00;95894.44;6207961;23;20004;-62
2021/10/04 04:55:18;;;;;;;3.60;2.70;;;;;;;9.99;100.00;95890.97;6206992;23;20344;-62
2021/10/04 04:57:43;;;;;;;2.70;2.50;;;;;;;9.98;100.00;95897.22;6208006;23;20049;-61
2021/10/04 05:00:11;;;;;;;1.63;1.40;;;;;;;9.97;100.00;95917.41;6206944;23;20009;-62
2021/10/04 05:02:37;;;;;;;1.73;1.30;;;;;;;9.98;100.00;95921.69;6208097;23;20078;-61
2021/10/04 05:05:09;;;;;;;1.30;1.30;;;;;;;9.96;100.00;95922.81;6207043;23;20004;-62
2021/10/04 05:07:35;;;;;;;1.25;1.25;;;;;;;9.93;100.00;95929.16;6207616;23;20444;-62
2021/10/04 05:10:00;;;;;;;1.80;1.70;;;;;;;9.93;100.00;95933.56;6207772;23;20035;-62
2021/10/04 05:12:26;;;;;;;2.00;1.90;;;;;;;9.94;100.00;95925.56;6207253;23;20458;-62
2021/10/04 05:14:51;;;;;;;4.25;2.20;;;;;;;9.93;100.00;95931.78;6207900;23;20454;-61
2021/10/04 05:17:17;;;;;;;2.53;2.42;;;;;;;9.89;100.00;95938.28;6206384;23;20439;-62
2021/10/04 05:19:42;;;;;;;4.70;3.17;;;;;;;9.89;100.00;95938.28;6208363;23;20075;-62
2021/10/04 05:22:07;;;;;;;3.35;2.90;;;;;;;9.92;100.00;95947.69;6207727;23;20313;-61
2021/10/04 05:24:33;;;;;;;2.30;2.20;;;;;;;9.93;100.00;95950.19;6207224;23;20039;-62
2021/10/04 05:26:58;;;;;;;1.35;1.35;;;;;;;9.88;100.00;95949.78;6207363;23;20448;-62
2021/10/04 05:29:24;;;;;;;1.90;1.80;;;;;;;9.92;100.00;95947.69;6206972;23;20070;-61
2021/10/04 05:31:50;;;;;;;1.88;1.77;;;;;;;9.97;100.00;95946.34;6207393;23;20027;-62
2021/10/04 05:34:16;;;;;;;1.38;1.13;;;;;;;9.99;100.00;95944.41;6205556;23;20008;-62
2021/10/04 05:36:41;;;;;;;0.80;0.80;;;;;;;9.96;100.00;95946.47;6206188;23;20389;-61
2021/10/04 05:39:07;;;;;;;2.05;1.88;;;;;;;9.95;100.00;95943.00;6204653;23;20488;-62
2021/10/04 05:41:32;;;;;;;0.95;0.93;;;;;;;9.99;100.00;95939.16;6204928;23;20015;-61
2021/10/04 05:43:58;;;;;;;0.80;0.80;;;;;;;10.00;100.00;95938.19;6206004;23;20498;-63
2021/10/04 05:46:23;;;;;;;0.80;0.80;;;;;;;9.95;100.00;95950.91;6205700;23;20013;-63
2021/10/04 05:48:49;;;;;;;0.80;0.80;;;;;;;9.99;100.00;95954.94;6207619;23;20001;-62
2021/10/04 05:51:14;;;;;;;2.63;1.95;;;;;;;10.00;100.00;95953.16;6207926;23;20000;-62
2021/10/04 05:53:39;;;;;;;1.65;0.90;;;;;;;10.01;100.00;95947.72;6207701;23;20064;-61
2021/10/04 05:56:05;;;;;;;0.75;0.75;;;;;;;9.89;100.00;95948.81;6207836;23;20000;-60
2021/10/04 05:58:30;;;;;;;0.85;0.85;;;;;;;9.88;100.00;95955.03;6207691;23;20019;-61
2021/10/04 06:00:56;;;;;;;1.00;1.00;;;;;;;9.84;100.00;95966.78;6207832;23;20012;-63
2021/10/04 06:03:21;;;;;;;1.67;1.58;;;;;;;9.88;100.00;95968.19;6207793;23;20000;-61
2021/10/04 06:05:47;;;;;;;0.80;0.80;;;;;;;9.88;100.00;95968.19;6207671;23;20084;-62
2021/10/04 06:08:12;;;;;;;0.77;0.77;;;;;;;9.87;100.00;95993.63;6207770;23;20008;-63
2021/10/04 06:10:38;;;;;;;0.80;0.80;;;;;;;9.84;100.00;96012.31;6207325;23;20032;-61
2021/10/04 06:13:03;;;;;;;1.52;0.70;;;;;;;9.88;100.00;96026.84;6207790;23;20067;-61
2021/10/04 06:15:29;;;;;;;0.80;0.80;;;;;;;9.87;100.00;96034.88;6207434;23;20008;-61
2021/10/04 06:17:55;;;;;;;0.80;0.80;;;;;;;9.83;100.00;96033.44;6207735;23;20009;-61
2021/10/04 06:20:21;;;;;;;0.90;0.90;;;;;;;9.87;100.00;96034.88;6206875;23;20451;-60
2021/10/04 06:22:47;;;;;;;0.90;0.90;;;;;;;9.81;100.00;96030.97;6207886;23;20005;-60
2021/10/04 06:25:15;;;;;;;0.90;0.90;;;;;;;9.78;100.00;96038.28;6207672;23;20005;-60
2021/10/04 06:27:41;;;;;;;0.88;0.85;;;;;;;9.77;100.00;96055.00;6207712;23;20014;-61
2021/10/04 06:30:08;;;;;;;0.90;0.90;;;;;;;9.81;100.00;96074.81;6207560;23;20313;-60
2021/10/04 06:32:34;;;;;;;0.82;0.82;;;;;;;9.87;100.00;96076.97;6207183;23;20008;-60
2021/10/04 06:34:59;;;;;;;1.17;1.17;;;;;;;9.86;100.00;96081.38;6207894;23;20035;-60
2021/10/04 06:37:25;;;;;;;1.05;1.05;;;;;;;9.83;100.00;96075.53;6207731;23;20036;-60
2021/10/04 06:39:51;;;;;;;0.80;0.80;;;;;;;9.81;100.00;96077.47;6207612;23;20493;-61
2021/10/04 06:42:17;;;;;;;0.90;0.90;;;;;;;9.83;100.00;96088.69;6208086;23;20005;-60
2021/10/04 06:44:43;;;;;;;1.00;1.00;;;;;;;9.85;100.00;96097.31;6207844;23;20077;-60
2021/10/04 06:47:08;;;;;;;1.05;1.05;;;;;;;9.83;100.00;96101.81;6207247;23;20009;-60
2021/10/04 06:49:34;;;;;;;1.00;1.00;;;;;;;9.79;100.00;96110.94;6207174;23;20393;-60
2021/10/04 06:52:01;;;;;;;0.90;0.90;;;;;;;9.79;100.00;96105.69;6207179;23;20398;-60
2021/10/04 06:54:26;;;;;;;2.65;1.20;;;;;;;9.79;100.00;96108.31;6207316;23;20049;-60
2021/10/04 06:56:51;;;;;;;1.30;1.20;;;;;;;9.80;100.00;96102.94;6207219;23;20004;-60
2021/10/04 06:59:17;;;;;;;1.40;1.38;;;;;;;9.74;100.00;96106.91;6207654;23;20440;-60
2021/10/04 07:01:42;;;;;;;3.13;1.30;;;;;;;9.72;100.00;96106.19;6180393;23;20008;-61
2021/10/04 07:04:08;;;;;;;1.90;1.80;;;;;;;9.70;100.00;96102.84;6207163;23;20239;-60
2021/10/04 07:06:33;;;;;;;1.60;1.50;;;;;;;9.70;100.00;96113.38;6205578;23;20009;-60
2021/10/04 07:08:59;;;;;;;1.13;1.10;;;;;;;9.71;100.00;96117.66;6207388;23;20348;-60
2021/10/04 07:11:24;;;;;;;2.25;1.50;;;;;;;9.72;100.00;96116.72;6206447;23;20005;-60
2021/10/04 07:13:49;;;;;;;2.00;1.80;;;;;;;9.77;100.00;96128.63;6207452;22;20031;-60
2021/10/04 07:16:16;;;;;;;2.05;1.92;;;;;;;9.82;100.00;96129.09;6207710;23;20068;-60
2021/10/04 07:18:42;;;;;;;1.70;1.60;;;;;;;9.79;100.00;96129.34;6207239;23;20008;-61
2021/10/04 07:21:09;;;;;;;1.73;1.63;;;;;;;9.84;100.00;96124.56;6207329;23;20336;-60
2021/10/04 07:23:34;;;;;;;1.88;1.77;;;;;;;9.91;100.00;96128.34;6207421;23;20015;-60
2021/10/04 07:26:02;;;;;;;1.30;1.30;;;;;;;9.94;100.00;96130.72;6207171;23;20348;-60
2021/10/04 07:28:28;;;;;;;1.45;1.35;;;;;;;9.95;100.00;96137.63;6206760;23;20013;-60
2021/10/04 07:30:55;;;;;;;1.35;1.33;;;;;;;9.97;100.00;96138.34;6207161;23;20031;-60
2021/10/04 07:33:20;;;;;;;1.10;1.00;;;;;;;10.01;100.00;96134.50;6207424;23;20009;-61
2021/10/04 07:35:46;;;;;;;1.13;1.02;;;;;;;10.07;100.00;96141.03;6207442;23;20054;-60
2021/10/04 07:38:11;;;;;;;2.20;1.02;;;;;;;10.04;100.00;96131.59;6207054;23;20451;-60
2021/10/04 07:40:37;;;;;;;0.98;0.90;;;;;;;10.00;100.00;96132.81;6206820;23;20065;-60
2021/10/04 07:43:02;;;;;;;1.10;1.10;;;;;;;9.93;100.00;96129.03;6207106;23;20008;-60
2021/10/04 07:45:31;;;;;;;1.00;1.00;;;;;;;9.94;100.00;96129.88;6207215;23;20001;-60
2021/10/04 07:47:56;;;;;;;2.45;1.33;;;;;;;9.97;100.00;96135.72;6206701;23;20539;-60
2021/10/04 07:50:22;;;;;;;1.10;1.10;;;;;;;9.99;100.00;96136.41;6206911;23;20000;-60
2021/10/04 07:52:47;;;;;;;1.40;1.30;;;;;;;9.98;100.00;96137.38;6206957;23;20459;-60
2021/10/04 07:55:13;;;;;;;1.20;1.10;;;;;;;9.94;100.00;96141.22;6206096;23;20035;-60
2021/10/04 07:57:39;;;;;;;4.20;1.35;;;;;;;9.96;100.00;96128.78;6205951;23;20080;-60
2021/10/04 08:00:07;;;;;;;1.10;1.10;;;;;;;10.06;100.00;96136.75;6205788;23;20012;-60
2021/10/04 08:02:35;;;;;;;1.20;1.20;;;;;;;10.13;100.00;96152.88;6206014;23;20083;-60
2021/10/04 08:05:01;;;;;;;1.00;1.00;;;;;;;10.15;100.00;96151.75;6206134;23;20024;-60
2021/10/04 08:07:26;;;;;;;3.10;1.02;;;;;;;10.20;100.00;96159.28;6205998;23;20428;-60
2021/10/04 08:09:52;;;;;;;0.95;0.95;;;;;;;10.20;100.00;96155.81;6205776;23;20019;-60
2021/10/04 08:12:17;;;;;;;2.50;0.98;;;;;;;10.25;100.00;96157.09;6206318;23;20050;-60
2021/10/04 08:14:42;;;;;;;1.30;1.25;;;;;;;10.29;100.00;96158.53;6206361;23;20424;-60
2021/10/04 08:17:08;;;;;;;0.90;0.90;;;;;;;10.31;100.00;96163.63;6205493;23;20004;-60
2021/10/04 08:19:33;;;;;;;0.90;0.90;;;;;;;10.29;100.00;96166.41;6205957;23;20370;-60
2021/10/04 08:21:59;;;;;;;1.67;1.10;;;;;;;10.21;100.00;96178.53;6206932;23;20007;-67
2021/10/04 08:24:24;;;;;;;1.00;1.00;;;;;;;10.15;100.00;96174.63;6205474;23;20001;-68
2021/10/04 08:26:50;;;;;;;1.17;1.17;;;;;;;10.20;100.00;96177.69;6206855;23;20016;-66
2021/10/04 08:29:15;;;;;;;2.00;1.80;;;;;;;10.25;100.00;96174.69;6207063;23;20060;-67
2021/10/04 08:31:41;;;;;;;1.88;1.60;;;;;;;10.24;100.00;96183.53;6207124;23;20046;-67
2021/10/04 08:34:07;;;;;;;1.83;1.65;;;;;;;10.22;100.00;96181.03;6207319;23;20012;-66
2021/10/04 08:36:33;;;;;;;2.40;2.20;;;;;;;10.20;100.00;96180.31;6206860;23;20040;-66
2021/10/04 08:38:59;;;;;;;2.65;2.33;;;;;;;10.14;100.00;96181.66;6206755;23;20083;-66
2021/10/04 08:41:25;;;;;;;2.05;1.90;;;;;;;10.12;100.00;96177.50;6207082;23;20001;-66
2021/10/04 08:43:53;;;;;;;3.00;1.98;;;;;;;10.10;100.00;96168.91;6207407;23;20005;-67
2021/10/04 08:46:21;;;;;;;2.03;1.83;;;;;;;10.09;100.00;96168.06;6207101;23;20005;-66
2021/10/04 08:48:48;;;;;;;2.40;2.03;;;;;;;10.09;100.00;96161.97;6207204;23;20005;-67
2021/10/04 08:51:14;;;;;;;2.60;2.40;;;;;;;10.09;100.00;96160.16;6207982;23;20356;-66
2021/10/04 08:53:41;;;;;;;1.92;1.75;;;;;;;10.06;100.00;96168.31;6205834;23;20012;-67
2021/10/04 08:56:06;;;;;;;2.25;2.00;;;;;;;10.12;100.00;96164.34;6206383;23;20035;-67
2021/10/04 08:58:32;;;;;;;2.80;2.50;;;;;;;10.16;100.00;96157.88;6206700;23;20001;-67
2021/10/04 09:00:59;;;;;;;4.47;2.05;;;;;;;10.16;100.00;96160.50;6206626;23;20005;-66
2021/10/04 09:03:24;;;;;;;2.42;1.98;;;;;;;10.17;100.00;96143.75;6206801;23;20035;-66
2021/10/04 09:05:56;;;;;;;1.63;1.52;;;;;;;10.19;100.00;96139.19;6206936;23;20559;-66
2021/10/04 09:08:21;;;;;;;1.20;1.20;;;;;;;10.19;100.00;96144.44;6206979;23;20008;-66
2021/10/04 09:10:49;;;;;;;1.52;1.15;;;;;;;10.24;100.00;96133.53;6180354;23;20005;-67
2021/10/04 09:13:15;;;;;;;1.30;1.30;;;;;;;10.33;100.00;96124.88;6206663;23;20000;-67
2021/10/04 09:15:44;;;;;;;1.20;1.20;;;;;;;10.43;100.00;96130.22;6206281;23;20505;-67
2021/10/04 09:18:31;;;;;;;1.10;1.10;;;;;;;10.56;100.00;96122.09;6206714;23;20013;-67
2021/10/04 09:21:02;;;;;;;1.15;1.13;;;;;;;10.67;100.00;96116.78;6206421;23;20032;-66
2021/10/04 09:23:52;;;;;;;1.15;1.15;;;;;;;10.82;100.00;96105.84;6206346;23;20352;-66
2021/10/04 09:26:26;;;;;;;1.20;1.20;;;;;;;10.88;100.00;96116.69;6206036;23;20322;-66
2021/10/04 09:29:09;;;;;;;2.15;1.52;;;;;;;10.89;100.00;96110.47;6206806;23;20007;-66
2021/10/04 09:31:44;;;;;;;1.42;1.40;;;;;;;10.96;100.00;96109.94;6207528;23;20008;-66
2021/10/04 09:34:18;;;;;;;1.30;1.30;;;;;;;11.03;100.00;96105.78;6207730;23;20389;-66
2021/10/04 09:36:54;;;;;;;1.33;1.23;;;;;;;11.10;100.00;96106.91;6207231;23;19997;-65
2021/10/04 09:39:27;;;;;;;1.20;1.20;;;;;;;11.23;100.00;96095.31;6180511;23;20061;-65
2021/10/04 09:41:57;;;;;;;1.30;1.30;;;;;;;11.26;99.46;96081.84;6207879;23;20043;-65
2021/10/04 09:44:25;;;;;;;1.20;1.20;;;;;;;11.22;99.34;96083.91;6207088;23;19997;-65
2021/10/04 09:46:50;;;;;;;1.00;1.00;;;;;;;11.03;98.54;96082.09;6207666;23;20015;-65
2021/10/04 09:49:16;;;;;;;1.10;1.10;;;;;;;10.96;98.95;96065.16;6207432;23;20020;-64
2021/10/04 09:52:05;;;;;;;1.20;1.20;;;;;;;11.03;98.65;96055.75;6207446;23;20004;-65
2021/10/04 09:54:30;;;;;;;1.17;1.13;;;;;;;11.05;97.89;96059.06;6208199;23;20004;-65
2021/10/04 09:56:56;;;;;;;1.20;1.20;;;;;;;11.11;98.64;96047.97;6207599;23;20013;-64
2021/10/04 09:59:21;;;;;;;1.23;1.23;;;;;;;11.15;98.91;96030.09;6207601;23;20004;-64
2021/10/04 10:01:47;;;;;;;1.42;1.17;;;;;;;11.18;98.00;96025.41;6207462;23;20020;-64
2021/10/04 10:04:20;;;;;;;1.40;1.35;;;;;;;11.36;97.36;96005.41;6208017;23;20016;-64
2021/10/04 10:06:45;;;;;;;1.77;1.67;;;;;;;11.49;97.44;96010.41;6207647;23;20011;-64
2021/10/04 10:09:11;;;;;;;1.83;1.70;;;;;;;11.53;97.36;96011.78;6207825;23;20005;-64
2021/10/04 10:11:36;;;;;;;1.50;1.45;;;;;;;11.71;97.65;96009.25;6207605;23;20028;-64
2021/10/04 10:14:02;;;;;;;2.85;1.30;;;;;;;11.73;95.87;96002.06;6207986;23;20012;-64
2021/10/04 10:16:36;;;;;;;1.00;1.00;;;;;;;11.80;95.12;96013.69;6208143;23;20398;-64
2021/10/04 10:19:12;;;;;;;0.90;0.90;;;;;;;11.85;96.33;96000.09;6207654;23;20081;-64
2021/10/04 10:21:38;;;;;;;1.15;1.00;;;;;;;11.81;94.03;95999.53;6206643;23;20004;-64
2021/10/04 10:24:07;;;;;;;0.80;0.80;;;;;;;11.91;93.56;95999.53;6207554;23;20024;-63
2021/10/04 10:26:36;;;;;;;1.20;1.00;;;;;;;12.00;93.76;95998.66;6207452;23;20023;-63
2021/10/04 10:29:13;;;;;;;1.00;1.00;;;;;;;12.19;92.72;95983.75;6208031;23;20005;-63
2021/10/04 10:31:47;;;;;;;1.33;1.08;;;;;;;12.35;90.79;95982.31;6207554;23;20007;-63
2021/10/04 10:34:36;;;;;;;0.82;0.82;;;;;;;12.42;89.79;95978.94;6207715;23;20001;-63
2021/10/04 10:37:08;;;;;;;0.93;0.93;;;;;;;12.46;89.48;95977.69;6207639;23;20046;-64
2021/10/04 10:39:34;;;;;;;0.80;0.80;;;;;;;12.59;89.95;95969.41;6208024;23;19997;-64
2021/10/04 10:42:14;;;;;;;0.70;0.70;;;;;;;12.73;88.43;95959.31;6207777;23;20005;-64
2021/10/04 10:44:58;;;;;;;0.70;0.70;;;;;;;12.75;86.76;95960.00;6207800;23;20000;-64
2021/10/04 10:47:39;;;;;;;0.80;0.80;;;;;;;12.54;87.41;95957.63;6206579;23;20012;-64
2021/10/04 10:50:27;;;;;;;1.83;1.73;;;;;;;12.41;88.96;95968.53;6207322;23;20011;-64
2021/10/04 10:52:55;;;;;;;0.88;0.88;;;;;;;12.37;88.01;95962.69;6207628;23;20062;-64
2021/10/04 10:55:21;;;;;;;0.57;0.57;;;;;;;12.25;87.19;95961.25;6207181;23;20005;-63
2021/10/04 10:57:49;;;;;;;5.35;0.70;;;;;;;12.16;88.24;95976.13;6207314;23;20096;-64
2021/10/04 11:00:18;;;;;;;1.10;1.10;;;;;;;12.12;89.34;95985.31;6207624;23;20008;-63
2021/10/04 11:03:03;;;;;;;0.80;0.80;;;;;;;12.02;89.77;95988.00;6207468;23;20004;-63
2021/10/04 11:05:34;;;;;;;0.70;0.70;;;;;;;11.97;90.54;95988.38;6207844;23;20474;-64
2021/10/04 11:08:00;;;;;;;0.80;0.80;;;;;;;11.94;91.65;95987.84;6207505;23;20098;-63
2021/10/04 11:10:26;;;;;;;0.73;0.73;;;;;;;11.93;91.48;95991.44;6207608;23;20097;-63
2021/10/04 11:13:09;;;;;;;0.75;0.75;;;;;;;11.81;91.34;96009.25;6207728;23;20471;-63
2021/10/04 11:15:40;;;;;;;1.00;1.00;;;;;;;11.71;90.52;96004.81;6207900;23;20321;-63
2021/10/04 11:18:07;;;;;;;2.05;0.90;;;;;;;11.75;90.66;95998.28;6207731;23;20440;-63
2021/10/04 11:20:33;;;;;;;2.35;1.00;;;;;;;11.72;90.54;95989.84;6207671;23;20076;-63
2021/10/04 11:23:19;;;;;;;1.10;1.10;;;;;;;11.81;90.82;95983.72;6207720;23;20032;-64
2021/10/04 11:25:50;;;;;;;1.10;1.10;;;;;;;11.88;90.65;95982.16;6181065;23;20455;-63
2021/10/04 11:28:19;;;;;;;1.00;1.00;;;;;;;11.80;90.75;95995.25;6207399;23;20020;-64
2021/10/04 11:31:03;;;;;;;1.10;1.00;;;;;;;11.83;91.14;95994.13;6207370;23;20068;-64